Time;durP1;ratioP1;P1;durP2;ratioP2;P2;SDS_P1;SDS_P2;PMS_P1;PMS_P2;Temp;Humidity;BMP_temperature;BMP_pressure;BME280_temperature;BME280_humidity;BME280_pressure;Samples;Min_cycle;Max_cycle;Signal;HPM_P1;HPM_P2
2020/12/04 00:12:02;;;;;;;;;;;;;;;;;;;;;
2020/12/04 00:41:25;;;;;;;14.32;9.07;;;;;;;5.81;73.29;96940.69;4859669;29;20057;-89
2020/12/04 00:43:52;;;;;;;16.23;10.00;;;;;;;5.81;73.20;96935.47;4864040;29;20522;-88
2020/12/04 00:46:18;;;;;;;16.08;10.13;;;;;;;5.81;73.11;96921.56;4860989;29;20503;-88
2020/12/04 00:48:45;;;;;;;15.23;9.85;;;;;;;5.81;73.07;96924.19;4863560;29;20399;-88
2020/12/04 00:51:14;;;;;;;18.15;10.55;;;;;;;5.81;72.78;96914.59;4861700;29;20049;-89
2020/12/04 00:53:41;;;;;;;17.95;10.35;;;;;;;5.82;72.73;96918.84;4862207;29;20057;-88
2020/12/04 00:56:07;;;;;;;17.83;9.77;;;;;;;5.81;72.98;96911.97;4861968;29;20057;-90
2020/12/04 00:58:33;;;;;;;15.55;9.85;;;;;;;5.81;72.86;96911.13;4863067;29;20418;-89
2020/12/04 01:01:00;;;;;;;15.60;9.43;;;;;;;5.81;72.85;96909.34;4862599;29;20083;-88
2020/12/04 01:03:29;;;;;;;17.17;10.20;;;;;;;5.81;72.68;96909.34;4861280;29;20076;-88
2020/12/04 01:05:56;;;;;;;15.85;9.88;;;;;;;5.81;72.67;96925.03;4865961;29;20049;-88
2020/12/04 01:08:22;;;;;;;16.33;10.00;;;;;;;5.81;72.47;96919.81;4868189;29;20064;-87
2020/12/04 01:10:48;;;;;;;17.35;10.20;;;;;;;5.80;72.55;96899.84;4868709;29;20065;-88
2020/12/04 01:13:15;;;;;;;14.98;9.10;;;;;;;5.78;72.71;96901.78;4864447;29;20057;-87
2020/12/04 01:15:41;;;;;;;13.55;9.05;;;;;;;5.79;72.30;96895.59;4868140;29;20061;-88
2020/12/04 01:18:08;;;;;;;14.88;9.57;;;;;;;5.76;72.43;96890.66;4868981;29;20057;-88
2020/12/04 01:20:34;;;;;;;15.80;9.82;;;;;;;5.76;72.28;96890.66;4863348;29;20057;-89
2020/12/04 01:23:00;;;;;;;16.08;10.00;;;;;;;5.74;72.39;96882.94;4866243;29;20060;-88
2020/12/04 01:25:28;;;;;;;16.17;9.48;;;;;;;5.75;72.20;96883.75;4866111;29;20053;-89
2020/12/04 01:27:56;;;;;;;15.85;9.95;;;;;;;5.74;72.04;96876.88;4866115;29;20057;-88
2020/12/04 01:30:24;;;;;;;16.30;9.77;;;;;;;5.73;72.02;96872.63;4866140;29;20514;-87
2020/12/04 01:32:50;;;;;;;16.17;10.15;;;;;;;5.71;72.23;96874.53;4867701;29;20525;-90
2020/12/04 01:35:18;;;;;;;17.02;10.13;;;;;;;5.71;72.12;96874.53;4863312;29;20049;-89
2020/12/04 01:37:44;;;;;;;17.00;10.15;;;;;;;5.70;72.50;96867.66;4866404;29;20057;-88
2020/12/04 01:40:11;;;;;;;16.58;9.95;;;;;;;5.69;72.16;96874.66;4866172;29;20058;-89
2020/12/04 01:42:50;;;;;;;15.50;9.38;;;;;;;5.67;70.76;96863.53;4865726;29;20049;-88
2020/12/04 01:45:16;;;;;;;16.58;10.00;;;;;;;5.70;72.44;96860.66;4864489;29;20053;-88
2020/12/04 01:47:42;;;;;;;17.48;10.23;;;;;;;5.72;72.14;96857.94;4866867;29;20076;-90
2020/12/04 01:50:08;;;;;;;15.57;9.65;;;;;;;5.70;72.13;96857.22;4865606;29;20510;-90
2020/12/04 01:52:37;;;;;;;17.60;9.82;;;;;;;5.71;72.50;96856.25;4863936;29;20049;-88
2020/12/04 01:55:04;;;;;;;14.30;8.85;;;;;;;5.73;72.27;96856.97;4868664;29;20065;-88
2020/12/04 01:57:34;;;;;;;16.55;9.30;;;;;;;5.73;71.71;96859.59;4866540;29;20056;-89
2020/12/04 02:00:01;;;;;;;16.58;9.75;;;;;;;5.75;72.38;96862.88;4865180;29;20065;-89
2020/12/04 02:02:27;;;;;;;16.48;9.93;;;;;;;5.76;72.40;96845.44;4867193;29;20057;-88
2020/12/04 02:04:54;;;;;;;16.77;9.02;;;;;;;5.77;72.54;96850.53;4864798;29;20053;-88
2020/12/04 02:07:41;;;;;;;14.98;9.13;;;;;;;5.76;71.39;96845.44;4865487;29;20408;-90
2020/12/04 02:10:20;;;;;;;15.52;9.40;;;;;;;5.76;71.51;96833.22;4863355;29;20062;-89
2020/12/04 02:12:49;;;;;;;23.80;9.70;;;;;;;5.80;72.50;96837.22;4866332;29;20578;-89
2020/12/04 02:15:17;;;;;;;14.40;9.35;;;;;;;5.82;72.66;96837.09;4868850;29;20061;-89
2020/12/04 02:17:44;;;;;;;15.98;9.70;;;;;;;5.82;72.72;96822.25;4862529;29;20060;-88
2020/12/04 02:20:12;;;;;;;16.80;9.48;;;;;;;5.85;72.82;96826.38;4867928;29;20090;-88
2020/12/04 02:22:39;;;;;;;14.60;9.68;;;;;;;5.85;72.90;96808.13;4866291;29;20062;-90
2020/12/04 02:25:08;;;;;;;16.60;9.63;;;;;;;5.85;72.61;96810.72;4865517;29;20053;-88
2020/12/04 02:27:47;;;;;;;15.90;9.50;;;;;;;5.84;71.63;96809.06;4863727;29;20064;-88
2020/12/04 02:30:33;;;;;;;15.82;9.70;;;;;;;5.83;71.01;96807.44;4863449;29;20057;-89
2020/12/04 02:32:59;;;;;;;15.82;9.80;;;;;;;5.87;72.92;96804.41;4865118;29;20060;-90
2020/12/04 02:35:26;;;;;;;17.67;9.80;;;;;;;5.87;72.97;96803.59;4864054;29;20057;-89
2020/12/04 02:37:53;;;;;;;16.55;10.00;;;;;;;5.86;72.88;96787.09;4862986;29;20068;-89
2020/12/04 02:40:23;;;;;;;14.50;9.15;;;;;;;5.86;72.79;96792.31;4866521;29;20059;-90
2020/12/04 02:42:54;;;;;;;16.20;10.00;;;;;;;5.85;72.85;96792.44;4864809;29;20133;-88
2020/12/04 02:45:21;;;;;;;17.08;10.52;;;;;;;5.85;72.74;96788.06;4863867;29;20061;-89
2020/12/04 02:47:47;;;;;;;16.38;9.93;;;;;;;5.85;72.91;96788.06;4866435;29;20061;-90
2020/12/04 02:50:13;;;;;;;16.48;9.93;;;;;;;5.85;73.08;96784.63;4865315;29;20067;-89
2020/12/04 02:52:39;;;;;;;17.85;11.13;;;;;;;5.83;72.66;96787.34;4863363;29;20054;-88
2020/12/04 02:55:05;;;;;;;17.08;11.05;;;;;;;5.83;72.90;96781.31;4864360;29;20125;-88
2020/12/04 02:57:31;;;;;;;19.45;10.18;;;;;;;5.82;72.88;96788.31;4862816;29;20053;-88
2020/12/04 02:59:58;;;;;;;16.63;10.20;;;;;;;5.81;72.75;96773.63;4864085;29;20136;-89
2020/12/04 03:02:24;;;;;;;17.27;11.13;;;;;;;5.81;72.92;96781.47;4862947;29;20060;-89
2020/12/04 03:04:50;;;;;;;19.27;11.27;;;;;;;5.81;73.13;96773.63;4863591;29;20071;-89
2020/12/04 03:07:16;;;;;;;17.08;10.70;;;;;;;5.82;73.10;96782.25;4862181;29;20060;-89
2020/12/04 03:09:44;;;;;;;18.42;10.75;;;;;;;5.80;72.73;96776.38;4863033;29;20060;-88
2020/12/04 03:12:10;;;;;;;20.65;10.52;;;;;;;5.80;72.85;96771.94;4864602;29;20057;-90
2020/12/04 03:14:37;;;;;;;16.92;9.82;;;;;;;5.80;73.11;96765.91;4864073;29;20145;-89
2020/12/04 03:17:04;;;;;;;19.23;11.35;;;;;;;5.79;73.17;96752.03;4863169;29;20515;-88
2020/12/04 03:19:31;;;;;;;19.63;10.77;;;;;;;5.79;72.71;96761.66;4863818;29;20058;-89
2020/12/04 03:21:57;;;;;;;20.92;12.00;;;;;;;5.77;72.91;96748.75;4864626;29;20136;-88
2020/12/04 03:24:23;;;;;;;17.85;11.35;;;;;;;5.77;72.95;96753.97;4863260;29;20049;-88
2020/12/04 03:26:50;;;;;;;18.85;10.88;;;;;;;5.75;73.26;96753.25;4864159;29;20086;-89
2020/12/04 03:29:16;;;;;;;20.58;11.27;;;;;;;5.76;72.95;96749.72;4864283;29;20063;-89
2020/12/04 03:31:42;;;;;;;18.70;10.82;;;;;;;5.74;73.30;96754.22;4864413;29;20049;-88
2020/12/04 03:34:10;;;;;;;17.63;10.88;;;;;;;5.74;73.36;96756.81;4864387;29;20054;-89
2020/12/04 03:36:38;;;;;;;19.60;11.20;;;;;;;5.72;73.17;96743.91;4864223;29;20049;-89
2020/12/04 03:39:04;;;;;;;16.42;10.57;;;;;;;5.72;73.08;96746.50;4862376;29;20063;-88
2020/12/04 03:41:32;;;;;;;19.52;11.57;;;;;;;5.72;73.18;96743.09;4861482;29;20521;-88
2020/12/04 03:43:59;;;;;;;20.38;11.43;;;;;;;5.73;73.27;96749.97;4862353;29;20132;-89
2020/12/04 03:46:25;;;;;;;17.92;10.73;;;;;;;5.72;73.41;96748.31;4863655;29;20495;-88
2020/12/04 03:48:51;;;;;;;18.45;11.25;;;;;;;5.72;73.33;96740.50;4862218;29;20050;-89
2020/12/04 03:51:20;;;;;;;19.27;11.23;;;;;;;5.71;73.49;96730.97;4863385;29;20056;-88
2020/12/04 03:53:47;;;;;;;17.48;10.32;;;;;;;5.71;73.52;96730.97;4863371;29;20059;-88
2020/12/04 03:56:13;;;;;;;18.02;11.25;;;;;;;5.71;73.60;96726.59;4862038;29;20053;-89
2020/12/04 03:58:44;;;;;;;16.65;10.63;;;;;;;5.70;73.32;96718.91;4865097;29;20136;-88
2020/12/04 04:01:10;;;;;;;18.02;10.50;;;;;;;5.73;73.08;96716.03;4864676;29;20061;-88
2020/12/04 04:03:37;;;;;;;18.92;11.40;;;;;;;5.71;73.28;96705.72;4863353;29;20057;-87
2020/12/04 04:06:03;;;;;;;18.20;11.20;;;;;;;5.72;73.50;96706.56;4863399;29;20054;-89
2020/12/04 04:08:32;;;;;;;18.88;11.30;;;;;;;5.73;73.77;96705.59;4862370;29;20057;-89
2020/12/04 04:11:00;;;;;;;18.42;10.95;;;;;;;5.71;73.20;96704.88;4862572;29;20057;-89
2020/12/04 04:13:27;;;;;;;16.88;10.90;;;;;;;5.71;73.62;96694.44;4861899;29;20057;-90
2020/12/04 04:15:54;;;;;;;16.33;10.82;;;;;;;5.72;73.33;96691.72;4863860;29;20061;-90
2020/12/04 04:18:20;;;;;;;16.70;10.65;;;;;;;5.72;73.41;96688.28;4862325;29;20058;-88
2020/12/04 04:20:46;;;;;;;18.17;11.63;;;;;;;5.72;73.63;96685.69;4865068;29;20061;-89
2020/12/04 04:23:15;;;;;;;18.27;11.52;;;;;;;5.72;73.82;96685.69;4864195;29;20113;-89
2020/12/04 04:25:41;;;;;;;19.25;11.70;;;;;;;5.71;73.46;96676.19;4860063;29;20049;-87
2020/12/04 04:28:11;;;;;;;17.27;10.73;;;;;;;5.71;73.47;96681.41;4862071;29;20407;-88
2020/12/04 04:30:40;;;;;;;18.90;11.68;;;;;;;5.70;73.24;96677.97;4863150;29;20495;-89
2020/12/04 04:33:07;;;;;;;19.90;11.88;;;;;;;5.70;73.65;96677.16;4863579;29;20072;-89
2020/12/04 04:35:36;;;;;;;17.98;10.90;;;;;;;5.69;73.50;96672.88;4863282;29;20518;-90
2020/12/04 04:38:06;;;;;;;18.80;11.80;;;;;;;5.67;73.52;96675.63;4863609;29;20057;-89
2020/12/04 04:40:32;;;;;;;20.33;12.15;;;;;;;5.67;73.33;96673.03;4863082;29;20053;-89
2020/12/04 04:43:25;;;;;;;20.25;11.20;;;;;;;5.62;72.33;96662.16;4867938;29;20064;-88
2020/12/04 04:46:04;;;;;;;19.20;11.40;;;;;;;5.64;73.05;96672.47;4867991;29;20046;-88
2020/12/04 04:48:31;;;;;;;19.08;10.98;;;;;;;5.64;73.42;96677.69;4864626;29;20057;-88
2020/12/04 04:51:01;;;;;;;18.25;11.30;;;;;;;5.61;73.07;96676.19;4867194;29;20538;-89
2020/12/04 04:53:32;;;;;;;19.08;11.70;;;;;;;5.61;73.79;96658.72;4866175;29;20061;-89
2020/12/04 04:55:59;;;;;;;16.95;10.98;;;;;;;5.61;73.84;96668.34;4865080;29;20050;-88
2020/12/04 04:58:25;;;;;;;18.02;11.57;;;;;;;5.62;73.76;96667.38;4866054;29;20077;-90
2020/12/04 05:00:51;;;;;;;18.90;11.43;;;;;;;5.63;73.88;96678.63;4866532;29;20400;-89
2020/12/04 05:03:19;;;;;;;20.55;11.82;;;;;;;5.65;74.12;96674.13;4866022;29;20064;-90
2020/12/04 05:05:52;;;;;;;16.58;11.00;;;;;;;5.63;73.34;96669.03;4866250;29;20057;-89
2020/12/04 05:08:28;;;;;;;17.98;10.85;;;;;;;5.66;73.50;96662.72;4864451;29;20430;-91
2020/12/04 05:11:08;;;;;;;17.70;11.18;;;;;;;5.66;72.76;96678.38;4867898;29;20488;-89
2020/12/04 05:13:34;;;;;;;16.05;9.88;;;;;;;5.73;74.18;96674.28;4864177;29;20065;-92
2020/12/04 05:16:06;;;;;;;17.55;10.93;;;;;;;5.71;73.13;96679.63;4869334;29;20076;-91
2020/12/04 05:18:41;;;;;;;16.30;10.30;;;;;;;5.77;74.09;96674.81;4866866;29;20092;-89
2020/12/04 05:21:07;;;;;;;17.42;11.35;;;;;;;5.80;74.02;96677.97;4866102;29;20362;-91
2020/12/04 05:23:34;;;;;;;16.10;10.40;;;;;;;5.81;74.24;96671.81;4866384;29;20060;-89
2020/12/04 05:26:02;;;;;;;17.90;9.77;;;;;;;5.84;74.31;96679.38;4867526;29;20090;-89
2020/12/04 05:28:49;;;;;;;16.25;10.50;;;;;;;5.83;72.85;96680.34;4868413;29;20080;-89
2020/12/04 05:31:28;;;;;;;16.08;10.23;;;;;;;5.87;73.46;96679.09;4863726;29;20057;-89
2020/12/04 05:34:35;;;;;;;;;;;;;;;;;;;;;
2020/12/04 05:37:03;;;;;;;15.15;9.73;;;;;;;5.93;73.68;96682.13;4869788;29;20067;-89
2020/12/04 05:39:47;;;;;;;15.00;9.68;;;;;;;5.93;72.79;96679.53;4866134;29;20064;-89
2020/12/04 05:42:31;;;;;;;16.95;9.63;;;;;;;5.93;73.04;96688.19;4865456;29;20107;-88
2020/12/04 05:44:57;;;;;;;13.95;9.10;;;;;;;5.98;73.98;96690.41;4865166;29;20080;-90
2020/12/04 05:47:41;;;;;;;16.90;9.75;;;;;;;5.96;73.01;96682.72;4864280;29;20060;-88
2020/12/04 05:50:09;;;;;;;14.95;9.38;;;;;;;6.02;74.04;96690.97;4866330;29;20137;-88
2020/12/04 05:52:37;;;;;;;14.60;8.88;;;;;;;6.03;74.24;96685.63;4865262;29;20063;-88
2020/12/04 05:55:04;;;;;;;15.73;8.77;;;;;;;6.04;74.04;96689.88;4863545;29;20086;-89
2020/12/04 05:57:46;;;;;;;13.65;8.73;;;;;;;6.03;72.86;96685.63;4865082;29;20492;-90
2020/12/04 06:00:15;;;;;;;12.93;8.85;;;;;;;6.07;74.03;96694.84;4864171;29;20057;-90
2020/12/04 06:02:45;;;;;;;11.55;8.02;;;;;;;6.09;74.03;96686.88;4866555;29;20068;-90
2020/12/04 06:05:13;;;;;;;12.95;8.05;;;;;;;6.10;73.87;96686.72;4866487;29;20113;-91
2020/12/04 06:07:41;;;;;;;13.98;8.50;;;;;;;6.11;73.84;96683.19;4864078;29;20387;-90
2020/12/04 06:10:09;;;;;;;12.35;8.05;;;;;;;6.13;74.02;96678.63;4864091;29;20086;-91
2020/12/04 06:12:39;;;;;;;12.73;7.70;;;;;;;6.13;73.66;96683.84;4864421;29;20057;-88
2020/12/04 06:15:27;;;;;;;13.27;8.60;;;;;;;6.12;73.14;96686.59;4863058;29;20050;-90
2020/12/04 06:18:03;;;;;;;11.43;7.63;;;;;;;6.15;73.32;96695.94;4865193;29;20057;-89
2020/12/04 06:20:40;;;;;;;12.02;7.75;;;;;;;6.15;73.19;96693.31;4866842;29;20058;-90
2020/12/04 06:23:12;;;;;;;11.07;7.63;;;;;;;6.18;73.59;96699.13;4863576;29;20088;-89
2020/12/04 06:26:02;;;;;;;12.32;7.97;;;;;;;6.15;72.88;96696.78;4864895;29;20061;-90
2020/12/04 06:28:47;;;;;;;10.52;7.13;;;;;;;6.17;72.76;96709.72;4865713;29;20076;-91
2020/12/04 06:31:21;;;;;;;11.63;7.50;;;;;;;6.21;73.73;96711.09;4864805;29;20117;-89
2020/12/04 06:33:54;;;;;;;11.02;7.65;;;;;;;6.23;73.99;96711.75;4863613;29;20057;-92
2020/12/04 06:36:29;;;;;;;10.98;7.40;;;;;;;6.22;73.08;96710.13;4866861;29;20511;-91
2020/12/04 06:42:07;;;;;;;11.18;6.55;;;;;;;6.27;74.12;96718.38;4806037;29;20065;-91
2020/12/04 06:44:33;;;;;;;11.25;7.68;;;;;;;6.27;74.26;96713.16;4806854;29;20050;-90
2020/12/04 06:47:00;;;;;;;11.50;7.47;;;;;;;6.29;74.06;96729.53;4822034;29;20405;-91
2020/12/04 06:51:58;;;;;;;9.15;6.50;;;;;;;6.31;74.32;96717.13;4807451;29;20066;-90
2020/12/04 06:54:25;;;;;;;9.70;6.60;;;;;;;6.34;74.39;96721.25;4822042;29;20055;-91
2020/12/04 06:56:52;;;;;;;10.30;6.63;;;;;;;6.35;74.51;96726.34;4807615;29;20103;-90
2020/12/04 06:59:28;;;;;;;9.02;6.35;;;;;;;6.35;73.77;96722.91;4822099;29;20055;-90
2020/12/04 07:02:21;;;;;;;9.35;6.70;;;;;;;6.35;73.35;96728.97;4806932;29;20058;-90
2020/12/04 07:04:52;;;;;;;8.43;6.15;;;;;;;6.40;74.35;96723.34;4805951;29;20062;-90
2020/12/04 07:07:26;;;;;;;9.15;6.15;;;;;;;6.39;73.67;96727.72;4807274;29;20062;-91
2020/12/04 07:09:57;;;;;;;12.65;5.95;;;;;;;6.42;74.17;96731.84;4805957;29;20066;-90
2020/12/04 07:12:26;;;;;;;8.48;6.38;;;;;;;6.43;74.05;96736.13;4807206;29;20055;-90
2020/12/04 07:14:54;;;;;;;8.75;6.28;;;;;;;6.43;74.41;96728.28;4807412;29;20421;-91
2020/12/04 07:17:23;;;;;;;8.23;5.65;;;;;;;6.45;74.25;96734.22;4807215;29;20053;-90
2020/12/04 07:19:52;;;;;;;9.98;6.30;;;;;;;6.47;74.33;96728.84;4806824;29;20424;-91
2020/12/04 07:22:20;;;;;;;7.20;5.43;;;;;;;6.48;74.63;96735.72;4806332;29;20062;-90
2020/12/04 07:24:48;;;;;;;8.38;5.70;;;;;;;6.50;74.37;96741.63;4805954;29;20436;-92
2020/12/04 07:27:18;;;;;;;7.82;5.47;;;;;;;6.50;74.49;96744.22;4820747;29;20054;-92
2020/12/04 07:29:44;;;;;;;7.95;5.32;;;;;;;6.54;74.68;96757.88;4805902;29;20059;-90
2020/12/04 07:32:12;;;;;;;8.15;5.25;;;;;;;6.55;74.45;96741.22;4805553;29;20062;-91
2020/12/04 07:34:38;;;;;;;7.47;5.30;;;;;;;6.57;74.72;96749.72;4807006;29;20073;-91
2020/12/04 07:37:09;;;;;;;7.63;5.25;;;;;;;6.58;74.04;96748.78;4820967;29;20062;-90
2020/12/04 07:39:37;;;;;;;7.60;5.60;;;;;;;6.59;74.71;96753.88;4806037;29;20092;-91
2020/12/04 07:42:05;;;;;;;7.30;5.07;;;;;;;6.63;74.71;96757.88;4805103;29;20071;-91
2020/12/04 07:44:52;;;;;;;9.68;5.55;;;;;;;6.61;73.35;96754.56;4806879;29;20509;-91
2020/12/04 07:47:18;;;;;;;7.03;5.13;;;;;;;6.68;74.88;96749.59;4820679;29;20057;-90
2020/12/04 07:49:46;;;;;;;7.82;5.38;;;;;;;6.70;74.38;96759.94;4807043;29;20515;-91
2020/12/04 07:52:14;;;;;;;8.68;5.05;;;;;;;6.72;74.45;96763.22;4804987;29;20054;-91
2020/12/04 07:54:41;;;;;;;8.30;5.10;;;;;;;6.75;74.59;96747.28;4820405;29;20077;-90
2020/12/04 07:57:08;;;;;;;8.85;5.55;;;;;;;6.77;74.48;96761.84;4806974;29;20054;-91
2020/12/04 07:59:36;;;;;;;8.20;5.18;;;;;;;6.80;74.93;96762.56;4806478;29;20094;-91
2020/12/04 08:02:04;;;;;;;6.57;5.15;;;;;;;6.82;74.72;96771.06;4819918;29;20054;-92
2020/12/04 08:04:31;;;;;;;7.82;5.20;;;;;;;6.85;74.76;96760.34;4805390;29;20055;-90
2020/12/04 08:07:09;;;;;;;7.53;4.47;;;;;;;6.85;73.70;96770.81;4805772;29;20057;-92
2020/12/04 08:09:40;;;;;;;9.13;4.65;;;;;;;6.90;74.79;96769.44;4806033;29;20512;-93
2020/12/04 08:12:18;;;;;;;6.20;4.65;;;;;;;6.90;73.56;96772.03;4820952;29;20063;-92
2020/12/04 08:14:55;;;;;;;6.78;4.05;;;;;;;6.94;73.78;96779.59;4823291;29;20069;-92
2020/12/04 08:17:26;;;;;;;7.75;4.60;;;;;;;6.98;74.70;96775.72;4820409;29;20054;-91
2020/12/04 08:19:53;;;;;;;6.78;4.10;;;;;;;7.01;74.76;96778.09;4806134;29;20061;-92
2020/12/04 08:22:27;;;;;;;8.05;5.00;;;;;;;7.01;74.00;96781.53;4806575;29;20059;-92
2020/12/04 08:25:06;;;;;;;6.05;3.58;;;;;;;7.07;74.60;96781.94;4821987;29;20055;-91
2020/12/04 08:27:41;;;;;;;5.55;3.78;;;;;;;7.08;73.69;96794.88;4806446;29;20046;-92
2020/12/04 08:30:20;;;;;;;5.70;4.10;;;;;;;7.12;73.97;96791.03;4820064;29;20509;-91
2020/12/04 08:32:47;;;;;;;5.88;3.97;;;;;;;7.15;74.48;96798.56;4807499;29;20066;-92
2020/12/04 08:35:14;;;;;;;5.50;4.00;;;;;;;7.19;74.50;96790.44;4808616;29;20059;-91
2020/12/04 08:37:41;;;;;;;5.63;4.00;;;;;;;7.23;74.54;96799.66;4806649;29;20058;-91
2020/12/04 08:40:23;;;;;;;5.43;3.83;;;;;;;7.22;73.65;96808.50;4807665;29;20082;-91
2020/12/04 08:42:50;;;;;;;5.85;3.97;;;;;;;7.28;74.78;96816.59;4822061;29;20059;-92
2020/12/04 08:45:16;;;;;;;4.85;3.53;;;;;;;7.30;74.78;96801.59;4808156;29;20420;-93
2020/12/04 08:47:45;;;;;;;4.93;3.70;;;;;;;7.33;74.66;96805.72;4807019;29;20051;-92
2020/12/04 08:50:14;;;;;;;5.90;3.65;;;;;;;7.37;74.42;96806.28;4807562;29;20061;-92
2020/12/04 08:52:46;;;;;;;4.45;3.20;;;;;;;7.39;74.69;96810.41;4808542;29;20509;-91
2020/12/04 08:55:17;;;;;;;5.30;3.30;;;;;;;7.45;74.49;96816.03;4824879;29;20058;-92
2020/12/04 08:57:45;;;;;;;4.25;3.05;;;;;;;7.47;74.33;96817.53;4810745;29;20055;-92
2020/12/04 09:00:17;;;;;;;4.60;3.33;;;;;;;7.49;73.83;96818.22;4824856;29;20436;-92
2020/12/04 09:02:44;;;;;;;4.43;3.40;;;;;;;7.53;74.65;96803.06;4822883;29;20492;-92
2020/12/04 09:05:13;;;;;;;4.22;3.10;;;;;;;7.55;74.53;96822.06;4806471;29;20086;-92
2020/12/04 09:07:39;;;;;;;4.72;3.60;;;;;;;7.59;74.42;96817.38;4810387;29;20046;-92
2020/12/04 09:10:07;;;;;;;4.10;3.40;;;;;;;7.62;74.27;96828.38;4808436;29;20073;-92
2020/12/04 09:12:34;;;;;;;4.78;3.33;;;;;;;7.66;74.90;96837.59;4805392;29;20082;-91
2020/12/04 09:15:01;;;;;;;3.45;2.90;;;;;;;7.69;74.51;96824.25;4805536;29;20404;-91
2020/12/04 09:17:27;;;;;;;4.20;2.92;;;;;;;7.74;74.86;96838.69;4805370;29;20505;-91
2020/12/04 09:19:54;;;;;;;3.60;3.22;;;;;;;7.76;74.51;96839.38;4804605;29;20413;-91
2020/12/04 09:22:23;;;;;;;3.60;2.70;;;;;;;7.80;74.50;96838.13;4805259;29;20116;-90
2020/12/04 09:24:49;;;;;;;5.25;3.00;;;;;;;7.83;74.76;96832.59;4819537;29;20055;-91
2020/12/04 09:27:15;;;;;;;4.47;3.13;;;;;;;7.87;74.63;96831.34;4820160;29;20051;-89
2020/12/04 09:29:43;;;;;;;5.00;3.35;;;;;;;7.91;74.26;96839.75;4807355;29;20131;-91
2020/12/04 09:32:15;;;;;;;3.83;2.88;;;;;;;7.92;73.01;96834.38;4808181;29;20071;-90
2020/12/04 09:34:44;;;;;;;3.78;2.47;;;;;;;7.99;73.67;96833.81;4807689;29;20052;-90
2020/12/04 09:37:16;;;;;;;4.65;2.83;;;;;;;8.02;74.26;96833.50;4822558;29;20054;-90
2020/12/04 09:39:45;;;;;;;4.35;3.00;;;;;;;8.06;74.36;96837.47;4807143;29;20051;-89
2020/12/04 09:42:16;;;;;;;3.25;2.63;;;;;;;8.07;73.39;96829.47;4822311;29;20058;-91
2020/12/04 09:44:52;;;;;;;3.58;2.78;;;;;;;8.13;73.76;96835.09;4822516;29;20065;-91
2020/12/04 09:47:38;;;;;;;3.30;2.90;;;;;;;8.17;74.17;96824.22;4796617;29;20074;-91
2020/12/04 09:50:27;;;;;;;3.63;2.63;;;;;;;8.19;72.78;96824.06;4821939;29;20111;-92
2020/12/04 09:53:12;;;;;;;3.75;2.85;;;;;;;8.27;74.47;96825.94;4791010;29;20062;-91
2020/12/04 09:55:52;;;;;;;3.75;2.92;;;;;;;8.32;74.07;96844.69;4821690;29;20062;-91
2020/12/04 09:58:56;;;;;;;3.45;2.85;;;;;;;8.37;73.63;96855.53;4808021;29;20059;-92
2020/12/04 10:01:53;;;;;;;3.00;2.67;;;;;;;8.40;72.45;96850.03;4808496;29;20149;-90
2020/12/04 10:04:57;;;;;;;3.22;2.55;;;;;;;8.47;72.39;96851.09;4807742;29;20086;-91
2020/12/04 10:07:23;;;;;;;5.32;2.90;;;;;;;8.55;73.64;96852.16;4808108;29;20154;-91
2020/12/04 10:10:04;;;;;;;4.47;2.92;;;;;;;8.55;72.33;96844.31;4809659;29;20059;-92
2020/12/04 10:12:37;;;;;;;4.80;3.10;;;;;;;8.60;73.74;96850.75;4823073;29;20054;-91
2020/12/04 10:15:46;;;;;;;2.88;2.38;;;;;;;8.60;71.79;96842.09;4822235;29;20424;-92
2020/12/04 10:18:12;;;;;;;3.05;2.58;;;;;;;8.68;73.78;96857.88;4823366;29;20133;-92
2020/12/04 10:22:10;;;;;;;;;;;;;;;;;;;;;
2020/12/04 10:25:12;;;;;;;3.65;2.75;;;;;;;8.75;72.26;96865.19;4787992;29;20066;-91
2020/12/04 10:27:55;;;;;;;4.53;2.85;;;;;;;8.78;72.17;96864.88;4788584;29;20059;-91
2020/12/04 10:35:53;;;;;;;;;;;;;;;;;;;;;
2020/12/04 10:49:48;;;;;;;4.00;2.67;;;;;;;9.29;72.26;96885.34;4814050;29;20054;-93
2020/12/04 10:53:07;;;;;;;2.45;2.25;;;;;;;9.37;72.41;96882.81;4765107;30;20064;-92
2020/12/04 11:07:39;;;;;;;;;;;;;;;;;;;;;
2020/12/04 11:15:37;;;;;;;3.17;2.75;;;;;;;11.08;75.88;96860.34;4706475;30;20073;-93
2020/12/04 11:22:58;;;;;;;2.72;2.45;;;;;;;12.44;73.49;96880.09;4714777;30;20162;-92
2020/12/04 11:32:49;;;;;;;2.17;1.83;;;;;;;13.15;69.19;96886.34;4752506;30;20092;-90
2020/12/04 11:35:19;;;;;;;3.72;1.77;;;;;;;13.01;66.72;96885.28;4755544;30;20087;-92
2020/12/04 11:49:23;;;;;;;2.05;1.85;;;;;;;12.49;70.13;96898.06;4696787;30;20107;-93
2020/12/04 12:07:48;;;;;;;2.10;1.90;;;;;;;12.60;70.82;96889.75;4751964;30;20186;-91
2020/12/04 12:10:14;;;;;;;2.80;2.15;;;;;;;12.94;77.42;96887.81;4769968;30;20062;-91
2020/12/04 12:12:43;;;;;;;4.97;2.50;;;;;;;13.34;78.64;96889.53;4768373;30;20059;-92
2020/12/04 12:15:10;;;;;;;3.13;2.35;;;;;;;13.81;78.01;96891.16;4771204;30;20052;-92
2020/12/04 12:17:36;;;;;;;2.50;2.08;;;;;;;14.32;77.86;96880.91;4771001;30;20056;-93
2020/12/04 12:20:08;;;;;;;2.03;1.88;;;;;;;14.86;74.54;96886.88;4771495;30;20059;-93
2020/12/04 12:22:34;;;;;;;2.60;2.20;;;;;;;15.42;76.14;96884.56;4755743;30;20142;-92
2020/12/04 12:25:18;;;;;;;2.28;1.90;;;;;;;15.96;68.27;96880.56;4771277;30;20070;-92
2020/12/04 12:28:05;;;;;;;2.22;1.73;;;;;;;16.48;67.95;96890.06;4771181;30;20083;-93
2020/12/04 12:30:36;;;;;;;2.03;1.83;;;;;;;16.84;70.13;96881.00;4770001;30;20064;-93
2020/12/04 12:33:26;;;;;;;2.15;1.70;;;;;;;17.13;65.42;96888.91;4770296;30;20059;-93
2020/12/04 12:36:17;;;;;;;1.88;1.60;;;;;;;17.54;68.57;96892.44;4764618;30;20130;-93
2020/12/04 12:39:15;;;;;;;2.85;1.70;;;;;;;17.86;64.56;96897.16;4754785;30;20067;-93
2020/12/04 12:41:50;;;;;;;1.75;1.65;;;;;;;18.31;69.10;96894.66;4868793;23;20129;-89
2020/12/04 12:44:16;;;;;;;1.83;1.70;;;;;;;18.73;67.92;96897.00;4841358;29;20076;-89
2020/12/04 12:46:42;;;;;;;2.85;1.65;;;;;;;19.15;66.43;96901.16;4842930;29;20057;-89
2020/12/04 12:49:08;;;;;;;1.70;1.50;;;;;;;19.52;64.55;96897.84;4842025;29;20058;-89
2020/12/04 12:51:34;;;;;;;1.67;1.30;;;;;;;19.78;60.60;96904.00;4824920;29;20504;-89
2020/12/04 12:54:00;;;;;;;1.52;1.30;;;;;;;19.86;58.71;96903.75;4823542;29;20062;-89
2020/12/04 12:56:26;;;;;;;1.33;1.23;;;;;;;19.84;57.87;96905.78;4822531;29;20397;-89
2020/12/04 12:58:53;;;;;;;2.05;1.45;;;;;;;19.69;56.67;96898.13;4822852;29;20054;-89
2020/12/04 13:01:19;;;;;;;1.70;1.52;;;;;;;19.45;55.31;96900.56;4823742;29;20054;-88
2020/12/04 13:03:45;;;;;;;1.42;1.30;;;;;;;19.16;55.41;96901.94;4825224;29;20050;-89
2020/12/04 13:06:15;;;;;;;2.08;1.60;;;;;;;18.79;56.02;96911.31;4827186;29;20420;-89
2020/12/04 13:08:42;;;;;;;2.08;1.60;;;;;;;18.45;56.48;96929.25;4825674;29;20547;-88
2020/12/04 13:11:08;;;;;;;2.55;1.60;;;;;;;18.14;56.97;96928.06;4826875;29;20522;-89
2020/12/04 13:13:34;;;;;;;1.60;1.50;;;;;;;17.88;57.94;96935.00;4827138;29;20061;-89
2020/12/04 13:16:00;;;;;;;1.60;1.50;;;;;;;17.64;58.11;96930.09;4826955;29;20512;-88
2020/12/04 13:18:26;;;;;;;1.63;1.42;;;;;;;17.42;57.72;96924.13;4825772;29;20058;-88
2020/12/04 13:20:53;;;;;;;2.03;1.50;;;;;;;17.20;57.72;96921.63;4825944;29;20477;-89
2020/12/04 13:23:19;;;;;;;2.17;1.70;;;;;;;16.98;58.11;96915.59;4825464;29;20065;-89
2020/12/04 13:25:47;;;;;;;2.53;1.77;;;;;;;16.72;56.86;96925.09;4826495;29;20054;-88
2020/12/04 13:28:13;;;;;;;3.00;1.65;;;;;;;16.48;57.85;96932.53;4825569;29;20061;-88
2020/12/04 13:30:40;;;;;;;2.40;1.75;;;;;;;16.21;57.88;96924.41;4826626;29;20066;-88
2020/12/04 13:33:06;;;;;;;2.97;1.70;;;;;;;15.93;57.99;96927.84;4825126;29;20058;-88
2020/12/04 13:35:35;;;;;;;3.45;1.58;;;;;;;15.61;57.91;96928.19;4826763;29;20064;-88
2020/12/04 13:38:01;;;;;;;1.88;1.40;;;;;;;15.32;58.42;96946.69;4825172;29;20046;-89
2020/12/04 13:40:28;;;;;;;3.50;1.20;;;;;;;15.02;58.59;96951.25;4825403;29;20062;-88
2020/12/04 13:42:54;;;;;;;2.70;1.67;;;;;;;14.72;58.77;96966.13;4824874;29;20078;-89
2020/12/04 13:45:20;;;;;;;2.05;1.83;;;;;;;14.45;59.22;96971.06;4825284;29;20500;-88
2020/12/04 13:47:46;;;;;;;4.18;1.88;;;;;;;14.19;59.43;96966.16;4826339;29;20054;-88
2020/12/04 13:50:12;;;;;;;3.65;1.70;;;;;;;13.94;60.22;96967.22;4825254;29;20500;-88
2020/12/04 13:52:39;;;;;;;1.48;1.33;;;;;;;13.71;60.40;96959.31;4824625;29;20058;-88
2020/12/04 13:55:05;;;;;;;3.10;1.70;;;;;;;13.50;60.98;96957.31;4826132;29;20050;-88